Time;durP1;ratioP1;P1;durP2;ratioP2;P2;SDS_P1;SDS_P2;PMS_P1;PMS_P2;Temp;Humidity;BMP_temperature;BMP_pressure;BME280_temperature;BME280_humidity;BME280_pressure;Samples;Min_cycle;Max_cycle;Signal;HPM_P1;HPM_P2
2021/01/02 00:00:31;;;;;;;49.07;21.33;;;0.70;86.30;;;;;;4895743;28;20623;-73
2021/01/02 00:03:18;;;;;;;53.87;21.27;;;0.80;91.60;;;;;;4888080;28;20225;-82
2021/01/02 00:05:45;;;;;;;47.23;19.90;;;0.70;86.50;;;;;;4886715;28;20181;-79
2021/01/02 00:08:27;;;;;;;54.50;20.50;;;0.70;86.10;;;;;;4887579;28;20200;-80
2021/01/02 00:11:09;;;;;;;47.63;20.23;;;0.70;85.00;;;;;;4885164;28;20197;-81
2021/01/02 00:14:02;;;;;;;67.57;22.20;;;0.60;83.90;;;;;;4885006;28;20627;-82
2021/01/02 00:16:51;;;;;;;95.07;24.83;;;0.60;83.40;;;;;;4887952;28;20666;-82
2021/01/02 00:19:28;;;;;;;72.87;23.27;;;0.60;82.50;;;;;;4886407;28;20629;-81
2021/01/02 00:22:00;;;;;;;70.53;25.17;;;0.60;77.60;;;;;;4884672;28;21286;-77
2021/01/02 00:24:36;;;;;;;82.03;26.30;;;0.40;84.90;;;;;;4886389;28;20230;-78
2021/01/02 00:27:07;;;;;;;57.50;23.47;;;0.60;77.70;;;;;;4885301;28;21232;-81
2021/01/02 00:30:00;;;;;;;54.30;22.53;;;0.70;76.10;;;;;;4889110;28;20183;-83
2021/01/02 00:32:30;;;;;;;58.87;22.63;;;0.50;77.10;;;;;;4886705;28;20553;-81
2021/01/02 00:35:06;;;;;;;53.60;22.03;;;0.50;78.90;;;;;;4885478;28;20193;-80
2021/01/02 00:37:34;;;;;;;71.57;24.03;;;0.50;81.20;;;;;;4888066;28;20188;-82
2021/01/02 00:40:08;;;;;;;82.90;24.93;;;0.50;82.90;;;;;;4888759;28;20213;-78
2021/01/02 00:42:31;;;;;;;112.17;27.97;;;0.40;81.90;;;;;;4887658;28;20632;-76
2021/01/02 00:44:59;;;;;;;92.37;25.97;;;0.40;80.20;;;;;;4885710;28;20178;-81
2021/01/02 00:47:21;;;;;;;66.60;23.20;;;0.40;72.10;;;;;;4892961;28;20238;-82
2021/01/02 00:49:44;;;;;;;38.87;18.20;;;0.40;70.80;;;;;;4888731;28;20282;-78
2021/01/02 00:52:19;;;;;;;48.13;19.10;;;0.30;84.40;;;;;;4888495;28;20649;-82
2021/01/02 00:54:55;;;;;;;66.17;19.67;;;0.30;78.50;;;;;;4883251;28;20189;-78
2021/01/02 00:57:36;;;;;;;52.83;19.73;;;0.30;81.00;;;;;;4885999;28;20759;-72
2021/01/02 01:00:07;;;;;;;49.90;18.67;;;0.30;83.10;;;;;;4886935;28;20682;-81
2021/01/02 01:02:56;;;;;;;49.40;19.60;;;0.30;85.40;;;;;;4902819;28;20759;-80
2021/01/02 01:05:21;;;;;;;47.87;19.43;;;0.30;86.70;;;;;;4905591;28;21089;-77
2021/01/02 01:07:53;;;;;;;89.70;22.33;;;0.30;87.70;;;;;;4908079;28;20293;-81
2021/01/02 01:10:20;;;;;;;51.70;19.47;;;0.30;89.20;;;;;;4913703;28;20234;-79
2021/01/02 01:12:43;;;;;;;58.93;19.13;;;0.20;88.50;;;;;;4902663;28;20205;-81
2021/01/02 01:15:09;;;;;;;56.87;18.63;;;0.30;92.30;;;;;;4904995;28;20193;-76
2021/01/02 01:17:40;;;;;;;62.43;20.67;;;0.20;88.00;;;;;;4907561;28;20596;-76
2021/01/02 01:20:04;;;;;;;63.80;19.20;;;0.10;91.70;;;;;;4911403;28;20196;-72
2021/01/02 01:22:27;;;;;;;57.37;20.07;;;0.30;91.00;;;;;;4906425;28;20857;-78
2021/01/02 01:25:01;;;;;;;42.93;19.03;;;0.20;84.90;;;;;;4914772;28;20601;-81
2021/01/02 01:27:29;;;;;;;68.17;21.33;;;0.20;85.60;;;;;;4903382;28;21051;-77
2021/01/02 01:29:58;;;;;;;69.83;20.43;;;0.10;86.80;;;;;;4901361;28;20192;-79
2021/01/02 01:32:23;;;;;;;43.67;18.87;;;-0.10;92.00;;;;;;4905705;28;21286;-76
2021/01/02 01:34:47;;;;;;;44.83;19.10;;;0.10;87.30;;;;;;4902181;28;20605;-81
2021/01/02 01:37:09;;;;;;;59.77;20.87;;;0.10;87.40;;;;;;4906458;28;20184;-79
2021/01/02 01:39:33;;;;;;;68.67;20.67;;;0.10;89.50;;;;;;4906351;28;20612;-80
2021/01/02 01:41:59;;;;;;;54.77;20.80;;;0.10;93.70;;;;;;4906207;28;20653;-73
2021/01/02 01:44:42;;;;;;;52.23;20.27;;;0.00;94.10;;;;;;4898661;28;21019;-79
2021/01/02 01:47:13;;;;;;;42.10;19.47;;;0.10;91.40;;;;;;4888339;28;20254;-79
2021/01/02 01:50:22;;;;;;;54.50;19.53;;;0.60;91.70;;;;;;4902201;28;21050;-78
2021/01/02 01:53:29;;;;;;;46.47;21.30;;;0.20;94.60;;;;;;4902307;28;20216;-76
2021/01/02 01:56:10;;;;;;;47.80;21.73;;;0.10;91.20;;;;;;4904289;28;20617;-78
2021/01/02 01:58:57;;;;;;;44.33;19.73;;;0.10;90.40;;;;;;4906610;28;20662;-72
2021/01/02 02:01:24;;;;;;;38.80;18.60;;;0.10;89.70;;;;;;4901620;28;21212;-78
2021/01/02 02:03:59;;;;;;;43.03;20.27;;;0.10;90.00;;;;;;4905520;28;20633;-78
2021/01/02 02:06:30;;;;;;;45.60;19.50;;;0.10;90.40;;;;;;4904753;28;20989;-79
2021/01/02 02:08:59;;;;;;;38.33;19.83;;;0.10;93.20;;;;;;4902027;28;20635;-73
2021/01/02 02:11:42;;;;;;;35.03;18.10;;;0.10;90.00;;;;;;4902603;28;20200;-76
2021/01/02 02:14:12;;;;;;;43.33;20.67;;;0.10;89.90;;;;;;4904199;28;21141;-76
2021/01/02 02:16:41;;;;;;;37.83;18.63;;;0.10;89.40;;;;;;4904150;28;21154;-79
2021/01/02 02:19:13;;;;;;;34.73;19.03;;;0.20;92.50;;;;;;4909175;28;20677;-73
2021/01/02 02:21:43;;;;;;;42.47;20.77;;;0.10;88.50;;;;;;4900097;28;20680;-77
2021/01/02 02:24:05;;;;;;;40.40;21.20;;;0.10;86.90;;;;;;4905198;28;20742;-77
2021/01/02 02:26:31;;;;;;;41.47;21.13;;;0.10;85.70;;;;;;4905390;28;20613;-78
2021/01/02 02:29:24;;;;;;;41.10;21.60;;;0.20;85.70;;;;;;4905995;28;21242;-81
2021/01/02 02:31:47;;;;;;;38.73;20.57;;;0.20;90.90;;;;;;4896646;28;20659;-79
2021/01/02 02:34:11;;;;;;;36.03;19.47;;;0.20;85.70;;;;;;4904449;28;20621;-81
2021/01/02 02:36:33;;;;;;;35.87;18.63;;;0.20;85.30;;;;;;4907019;28;20663;-77
2021/01/02 02:38:58;;;;;;;38.60;19.57;;;0.20;85.40;;;;;;4902523;28;20677;-80
2021/01/02 02:41:26;;;;;;;42.30;21.17;;;0.20;85.20;;;;;;4903337;28;21007;-73
2021/01/02 02:43:53;;;;;;;38.30;19.80;;;0.30;84.30;;;;;;4906953;28;21173;-72
2021/01/02 02:46:18;;;;;;;39.13;20.63;;;0.30;84.40;;;;;;4902512;28;20625;-73
2021/01/02 02:48:43;;;;;;;42.77;21.27;;;0.30;84.20;;;;;;4881987;28;20200;-74
2021/01/02 02:51:06;;;;;;;41.67;21.80;;;0.30;82.40;;;;;;4909733;28;21037;-73
2021/01/02 02:53:28;;;;;;;34.80;20.33;;;0.30;81.00;;;;;;4903912;28;21259;-81
2021/01/02 02:55:51;;;;;;;35.17;21.03;;;0.40;86.40;;;;;;4901767;28;20180;-81
2021/01/02 02:58:14;;;;;;;35.10;20.27;;;0.30;80.10;;;;;;4903871;28;20610;-82
2021/01/02 03:00:37;;;;;;;39.27;20.77;;;0.40;79.00;;;;;;4897419;28;20204;-78
2021/01/02 03:03:01;;;;;;;34.77;19.60;;;0.30;78.50;;;;;;4886695;28;20637;-75
2021/01/02 03:05:24;;;;;;;37.80;20.63;;;0.30;78.10;;;;;;4885644;28;20197;-81
2021/01/02 03:07:48;;;;;;;35.83;19.70;;;0.40;87.50;;;;;;4888173;28;20618;-80
2021/01/02 03:10:11;;;;;;;38.80;19.47;;;0.30;80.40;;;;;;4888106;28;20200;-80
2021/01/02 03:12:41;;;;;;;38.10;20.30;;;0.30;87.20;;;;;;4885020;28;20722;-80
2021/01/02 03:15:03;;;;;;;38.13;20.73;;;0.30;86.00;;;;;;4885077;28;20298;-78
2021/01/02 03:17:25;;;;;;;35.13;20.20;;;0.30;79.10;;;;;;4891367;28;20200;-81
2021/01/02 03:19:47;;;;;;;36.93;20.63;;;0.30;79.10;;;;;;4889215;28;20683;-79
2021/01/02 03:22:09;;;;;;;35.13;20.50;;;0.30;80.10;;;;;;4885442;28;20205;-82
2021/01/02 03:24:32;;;;;;;36.27;19.90;;;0.20;87.90;;;;;;4885204;28;20192;-81
2021/01/02 03:26:54;;;;;;;35.80;19.07;;;0.60;81.20;;;;;;4851679;28;20220;-82
2021/01/02 03:29:17;;;;;;;35.80;19.17;;;0.40;80.20;;;;;;4883658;28;20196;-81
2021/01/02 03:31:40;;;;;;;36.87;20.17;;;0.30;86.90;;;;;;4883969;28;20721;-75
2021/01/02 03:34:02;;;;;;;44.07;21.07;;;0.40;85.10;;;;;;4890611;28;20294;-80
2021/01/02 03:36:24;;;;;;;36.20;20.37;;;0.30;84.40;;;;;;4887726;28;20679;-82
2021/01/02 03:38:55;;;;;;;36.87;19.67;;;0.40;84.10;;;;;;4888759;28;20615;-81
2021/01/02 03:41:17;;;;;;;33.03;19.27;;;0.50;84.70;;;;;;4890406;28;20683;-77
2021/01/02 03:43:39;;;;;;;33.87;19.80;;;0.40;77.70;;;;;;4885535;28;20626;-79
2021/01/02 03:46:03;;;;;;;38.23;19.87;;;0.40;77.00;;;;;;4869654;28;20551;-81
2021/01/02 03:48:25;;;;;;;32.77;18.33;;;0.40;77.90;;;;;;4896078;28;20727;-81
2021/01/02 03:50:47;;;;;;;33.40;19.13;;;0.50;75.80;;;;;;4889880;28;20185;-77
2021/01/02 03:53:09;;;;;;;35.80;19.13;;;0.40;82.40;;;;;;4893645;28;20232;-78
2021/01/02 03:55:31;;;;;;;29.77;18.07;;;0.40;81.90;;;;;;4889325;28;20618;-81
2021/01/02 03:57:53;;;;;;;41.07;21.03;;;0.30;79.10;;;;;;4888139;28;20317;-80
2021/01/02 04:00:16;;;;;;;35.50;20.13;;;0.50;71.90;;;;;;4888419;28;21161;-82
2021/01/02 04:02:39;;;;;;;33.60;19.23;;;0.50;71.20;;;;;;4888146;28;20247;-81
2021/01/02 04:05:02;;;;;;;33.47;19.67;;;0.50;76.70;;;;;;4886542;28;20554;-81
2021/01/02 04:07:24;;;;;;;32.33;18.80;;;0.50;69.80;;;;;;4886053;28;21030;-82
2021/01/02 04:09:46;;;;;;;30.30;18.40;;;0.50;69.60;;;;;;4886928;28;20235;-82
2021/01/02 04:12:08;;;;;;;30.60;17.93;;;0.50;67.90;;;;;;4885321;28;20721;-82
2021/01/02 04:14:31;;;;;;;31.33;17.80;;;0.40;75.10;;;;;;4871501;28;20186;-82
2021/01/02 04:16:53;;;;;;;29.47;17.90;;;0.50;67.90;;;;;;4872435;28;20194;-81
2021/01/02 04:19:16;;;;;;;33.87;19.53;;;1.00;68.70;;;;;;4894140;28;20658;-81
2021/01/02 04:21:38;;;;;;;31.67;19.57;;;0.50;69.20;;;;;;4886798;28;20634;-81
2021/01/02 04:24:01;;;;;;;32.47;19.57;;;0.40;78.30;;;;;;4887351;28;20258;-80
2021/01/02 04:26:24;;;;;;;32.83;19.07;;;0.60;78.30;;;;;;4884708;28;20213;-82
2021/01/02 04:28:46;;;;;;;34.07;20.30;;;0.50;71.10;;;;;;4886454;28;20520;-82
2021/01/02 04:31:08;;;;;;;32.73;19.47;;;0.50;72.30;;;;;;4886499;28;20656;-81
2021/01/02 04:33:30;;;;;;;29.03;18.60;;;0.50;73.40;;;;;;4889356;28;20617;-82
2021/01/02 04:35:53;;;;;;;31.83;18.63;;;0.40;82.90;;;;;;4892214;28;20249;-80
2021/01/02 04:38:15;;;;;;;30.60;18.13;;;0.50;75.90;;;;;;4879678;28;20198;-82
2021/01/02 04:40:37;;;;;;;31.13;18.53;;;0.50;75.40;;;;;;4887415;28;20657;-82
2021/01/02 04:43:01;;;;;;;31.80;17.97;;;0.60;81.60;;;;;;4888944;28;20786;-81
2021/01/02 04:45:25;;;;;;;28.10;17.17;;;0.40;79.60;;;;;;4887123;28;20663;-80
2021/01/02 04:47:50;;;;;;;30.43;17.97;;;0.50;73.20;;;;;;4887689;28;20231;-77
2021/01/02 04:50:12;;;;;;;30.57;19.27;;;0.60;73.60;;;;;;4885622;28;20679;-80
2021/01/02 04:52:36;;;;;;;32.60;20.37;;;0.40;80.90;;;;;;4886687;28;20706;-82
2021/01/02 04:54:59;;;;;;;30.27;18.50;;;0.60;73.90;;;;;;4888786;28;20640;-78
2021/01/02 04:57:22;;;;;;;27.47;16.40;;;0.60;72.00;;;;;;4885902;28;20227;-81
2021/01/02 04:59:49;;;;;;;29.47;18.50;;;0.60;65.70;;;;;;4891439;28;20641;-81
2021/01/02 05:02:14;;;;;;;64.70;41.90;;;0.60;63.70;;;;;;4902826;28;20648;-81
2021/01/02 05:04:36;;;;;;;63.07;42.80;;;0.40;71.40;;;;;;4900468;28;20662;-82
2021/01/02 05:06:58;;;;;;;39.73;25.70;;;0.70;64.00;;;;;;4907918;28;20634;-81
2021/01/02 05:09:21;;;;;;;61.77;39.23;;;0.60;62.00;;;;;;4905475;28;20604;-79
2021/01/02 05:11:43;;;;;;;48.13;28.37;;;0.50;68.80;;;;;;4907696;28;20180;-78
2021/01/02 05:14:06;;;;;;;29.10;18.20;;;0.70;61.80;;;;;;4903530;28;20193;-80
2021/01/02 05:16:34;;;;;;;91.83;41.30;;;0.60;61.20;;;;;;4904021;28;20606;-81
2021/01/02 05:18:58;;;;;;;62.93;30.60;;;0.60;59.70;;;;;;4895774;28;20633;-82
2021/01/02 05:21:20;;;;;;;54.83;27.77;;;0.60;59.00;;;;;;4903980;28;20656;-77
2021/01/02 05:24:08;;;;;;;28.53;17.63;;;0.60;57.90;;;;;;4905113;28;20597;-81
2021/01/02 05:26:31;;;;;;;26.07;16.67;;;0.60;67.00;;;;;;4905051;28;20996;-81
2021/01/02 05:29:08;;;;;;;28.50;16.53;;;0.50;60.00;;;;;;4904064;28;20189;-82
2021/01/02 05:31:30;;;;;;;27.30;16.77;;;0.50;62.00;;;;;;4907178;28;21238;-81
2021/01/02 05:34:03;;;;;;;27.07;16.20;;;0.60;64.00;;;;;;4907707;28;20985;-81
2021/01/02 05:36:26;;;;;;;25.90;15.27;;;0.40;65.10;;;;;;4908703;28;20196;-82
2021/01/02 05:38:48;;;;;;;24.13;14.73;;;0.40;66.30;;;;;;4902876;28;20610;-76
2021/01/02 05:41:10;;;;;;;25.37;14.97;;;0.40;67.90;;;;;;4904661;28;20657;-81
2021/01/02 05:43:33;;;;;;;26.73;15.70;;;0.30;67.90;;;;;;4904721;28;20262;-74
2021/01/02 05:45:56;;;;;;;27.53;16.70;;;0.30;67.50;;;;;;4906235;28;20189;-82
2021/01/02 05:48:20;;;;;;;36.37;21.30;;;0.20;69.30;;;;;;4904001;28;20621;-78
2021/01/02 05:50:45;;;;;;;30.23;18.20;;;0.20;72.50;;;;;;4908822;28;20613;-79
2021/01/02 05:53:21;;;;;;;24.80;16.10;;;0.20;76.20;;;;;;4904425;28;21290;-81
2021/01/02 05:55:45;;;;;;;29.07;16.87;;;0.00;89.40;;;;;;4891026;28;20223;-81
2021/01/02 05:58:25;;;;;;;26.40;17.60;;;0.10;91.20;;;;;;4906871;28;20606;-82
2021/01/02 06:00:48;;;;;;;27.43;16.37;;;0.30;86.80;;;;;;4906024;28;20651;-73
2021/01/02 06:03:22;;;;;;;28.73;16.87;;;0.30;89.70;;;;;;4904154;28;21322;-81
2021/01/02 06:05:55;;;;;;;28.10;16.77;;;0.40;90.00;;;;;;4907259;28;20652;-82
2021/01/02 06:08:36;;;;;;;34.40;18.03;;;0.40;90.10;;;;;;4903371;28;20241;-73
2021/01/02 06:11:01;;;;;;;31.67;17.80;;;0.30;92.10;;;;;;4903440;28;21207;-82
2021/01/02 06:13:26;;;;;;;29.53;16.23;;;0.40;87.90;;;;;;4892870;28;20703;-80
2021/01/02 06:15:53;;;;;;;24.13;15.23;;;0.30;88.60;;;;;;4903000;28;20643;-80
2021/01/02 06:18:15;;;;;;;27.50;16.13;;;0.20;92.90;;;;;;4905252;28;20938;-79
2021/01/02 06:20:38;;;;;;;25.00;15.83;;;0.30;89.70;;;;;;4909256;28;21032;-82
2021/01/02 06:23:00;;;;;;;25.60;15.57;;;0.30;88.10;;;;;;4902092;28;20642;-79
2021/01/02 06:25:22;;;;;;;26.13;15.33;;;0.20;85.50;;;;;;4911853;28;20620;-78
2021/01/02 06:27:46;;;;;;;23.10;14.63;;;0.30;83.10;;;;;;4902456;28;20563;-82
2021/01/02 06:30:09;;;;;;;22.20;14.90;;;0.10;81.10;;;;;;4902665;28;20192;-81
2021/01/02 06:32:33;;;;;;;29.80;15.83;;;0.00;80.40;;;;;;4913115;28;20682;-79
2021/01/02 06:35:19;;;;;;;25.80;15.87;;;-0.10;81.20;;;;;;4906524;28;20605;-82
2021/01/02 06:38:06;;;;;;;22.40;15.23;;;-0.10;83.20;;;;;;4905178;28;20625;-78
2021/01/02 06:40:30;;;;;;;28.63;16.63;;;-0.10;85.70;;;;;;4914363;28;20648;-81
2021/01/02 06:42:53;;;;;;;30.37;17.67;;;-0.10;93.10;;;;;;4911504;28;20764;-81
2021/01/02 06:45:15;;;;;;;28.07;17.37;;;-0.20;90.00;;;;;;4904996;28;20604;-80
2021/01/02 06:47:38;;;;;;;29.67;18.13;;;-0.20;90.10;;;;;;4903585;28;20956;-81
2021/01/02 06:50:16;;;;;;;28.77;17.70;;;-0.30;90.30;;;;;;4910299;28;20605;-81
2021/01/02 06:52:38;;;;;;;29.70;16.40;;;-0.50;94.10;;;;;;4902860;28;20710;-82
2021/01/02 06:55:26;;;;;;;32.13;18.23;;;-0.40;94.60;;;;;;4902882;28;20617;-81
2021/01/02 06:57:49;;;;;;;31.37;18.43;;;-0.40;91.60;;;;;;4898860;28;20666;-77
2021/01/02 07:00:23;;;;;;;30.87;18.73;;;-0.30;92.90;;;;;;4904354;28;20621;-82
2021/01/02 07:02:46;;;;;;;31.90;19.30;;;-0.50;94.30;;;;;;4903677;28;20701;-82
2021/01/02 07:05:09;;;;;;;28.20;18.07;;;-0.40;96.30;;;;;;4905673;28;21035;-80
2021/01/02 07:07:40;;;;;;;34.43;21.13;;;-0.30;98.30;;;;;;4897497;28;20625;-82
2021/01/02 07:10:17;;;;;;;35.30;21.30;;;-0.20;99.90;;;;;;4906204;28;20635;-74
2021/01/02 07:12:39;;;;;;;35.73;20.33;;;-0.20;99.90;;;;;;4895405;28;21154;-81
2021/01/02 07:15:08;;;;;;;32.90;19.27;;;-0.10;99.90;;;;;;4903629;28;20621;-77
2021/01/02 07:17:30;;;;;;;33.53;19.30;;;0.00;99.90;;;;;;4905576;28;20614;-82
2021/01/02 07:19:53;;;;;;;36.87;20.77;;;0.00;99.90;;;;;;4915185;28;20613;-78
2021/01/02 07:22:26;;;;;;;37.20;22.30;;;0.30;99.90;;;;;;4908128;28;20638;-82
2021/01/02 07:24:50;;;;;;;32.00;21.27;;;0.20;99.90;;;;;;4907536;28;20677;-79
2021/01/02 07:27:14;;;;;;;39.40;23.43;;;0.30;99.90;;;;;;4909128;28;20601;-74
2021/01/02 07:29:37;;;;;;;90.70;40.33;;;0.30;99.90;;;;;;4909838;28;20601;-82
2021/01/02 07:32:08;;;;;;;96.80;46.30;;;0.40;99.90;;;;;;4909697;28;20616;-81
2021/01/02 07:34:30;;;;;;;105.77;45.43;;;0.50;99.90;;;;;;4904728;28;20617;-80
2021/01/02 07:36:53;;;;;;;82.23;42.90;;;0.50;99.90;;;;;;4906870;28;20605;-82
2021/01/02 07:39:16;;;;;;;94.50;50.57;;;0.60;99.90;;;;;;4906404;28;20701;-79
2021/01/02 07:41:39;;;;;;;92.17;57.40;;;0.80;99.90;;;;;;4898764;28;20652;-81
2021/01/02 07:44:03;;;;;;;53.57;33.67;;;1.00;99.90;;;;;;4901162;28;21442;-74
2021/01/02 07:46:26;;;;;;;128.43;57.83;;;1.00;99.90;;;;;;4909150;28;20624;-79
2021/01/02 07:48:55;;;;;;;157.10;64.97;;;1.10;99.90;;;;;;4906549;28;20782;-80
2021/01/02 07:51:17;;;;;;;59.63;29.73;;;1.20;99.60;;;;;;4913899;28;21022;-72
2021/01/02 07:53:41;;;;;;;80.07;35.93;;;1.30;95.80;;;;;;4912880;28;20655;-72
2021/01/02 07:56:03;;;;;;;59.13;27.10;;;1.30;94.00;;;;;;4900408;28;20545;-74
2021/01/02 07:58:25;;;;;;;52.70;26.40;;;1.40;91.30;;;;;;4906876;28;20223;-73
2021/01/02 08:00:47;;;;;;;44.33;24.63;;;1.60;93.00;;;;;;4905408;28;20196;-72
2021/01/02 08:03:10;;;;;;;43.20;23.60;;;1.60;88.80;;;;;;4906790;28;20228;-72
2021/01/02 08:05:32;;;;;;;37.30;21.50;;;1.70;86.00;;;;;;4932278;28;20183;-73
2021/01/02 08:07:56;;;;;;;37.80;21.00;;;1.50;84.60;;;;;;4907491;28;20249;-74
2021/01/02 08:10:19;;;;;;;35.43;19.47;;;1.80;77.80;;;;;;4905550;28;20230;-72
2021/01/02 08:12:46;;;;;;;28.43;18.40;;;1.80;76.10;;;;;;4905359;28;20189;-74
2021/01/02 08:15:10;;;;;;;32.23;19.73;;;1.80;75.80;;;;;;4905461;28;20184;-73
2021/01/02 08:17:39;;;;;;;30.17;19.50;;;1.90;69.20;;;;;;4907447;28;20184;-72
2021/01/02 08:20:02;;;;;;;33.07;18.23;;;2.00;68.10;;;;;;4907096;28;20197;-75
2021/01/02 08:22:28;;;;;;;27.03;16.63;;;2.10;59.30;;;;;;4905484;28;20266;-72
2021/01/02 08:24:55;;;;;;;27.37;17.53;;;2.20;53.50;;;;;;4911042;28;20180;-74
2021/01/02 08:27:18;;;;;;;31.77;21.23;;;2.20;54.30;;;;;;4905841;28;20188;-73
2021/01/02 08:29:40;;;;;;;30.40;19.77;;;2.30;56.10;;;;;;4901054;28;20204;-73
2021/01/02 08:32:09;;;;;;;28.13;17.70;;;2.70;60.80;;;;;;4908890;28;20245;-72
2021/01/02 08:34:33;;;;;;;21.50;15.97;;;2.70;53.90;;;;;;4886862;28;20227;-72
2021/01/02 08:37:00;;;;;;;22.07;15.53;;;3.00;49.20;;;;;;4909457;28;20253;-75
2021/01/02 08:39:22;;;;;;;22.37;15.63;;;3.10;41.00;;;;;;4911970;28;20210;-73
2021/01/02 08:41:51;;;;;;;23.80;15.83;;;3.30;32.90;;;;;;4905657;28;20822;-73
2021/01/02 08:44:21;;;;;;;21.63;14.77;;;3.80;31.50;;;;;;4888284;28;20224;-74
2021/01/02 08:46:45;;;;;;;21.03;15.73;;;3.90;26.30;;;;;;4911049;28;20238;-72
2021/01/02 08:49:07;;;;;;;31.83;21.47;;;4.10;12.90;;;;;;4906434;28;20191;-73
2021/01/02 08:51:29;;;;;;;32.50;20.57;;;4.20;6.60;;;;;;4917247;28;20185;-72
2021/01/02 08:53:51;;;;;;;19.10;13.80;;;4.30;1.00;;;;;;4910724;28;20277;-72
2021/01/02 08:56:22;;;;;;;20.83;14.40;;;4.30;1.00;;;;;;4897813;28;20184;-72
2021/01/02 08:58:44;;;;;;;21.63;15.33;;;4.30;1.00;;;;;;4898783;28;20211;-77
2021/01/02 09:01:07;;;;;;;18.53;13.10;;;4.00;1.00;;;;;;4899068;28;20697;-73
2021/01/02 09:03:29;;;;;;;19.23;13.57;;;4.20;1.00;;;;;;4916119;28;20203;-73
2021/01/02 09:05:51;;;;;;;20.23;14.27;;;4.00;1.00;;;;;;4912111;28;20662;-78
2021/01/02 09:08:19;;;;;;;20.03;15.33;;;4.10;1.00;;;;;;4895762;28;20192;-72
2021/01/02 09:10:43;;;;;;;18.40;13.57;;;4.10;1.00;;;;;;4903036;28;20225;-73
2021/01/02 09:13:07;;;;;;;17.50;12.80;;;4.00;1.00;;;;;;4901103;28;20614;-74
2021/01/02 09:15:43;;;;;;;17.07;13.10;;;4.20;1.00;;;;;;4895197;28;20254;-71
2021/01/02 09:18:06;;;;;;;19.20;14.13;;;4.30;1.00;;;;;;4897245;28;20546;-74
2021/01/02 09:20:29;;;;;;;16.93;13.03;;;4.50;1.00;;;;;;4897174;28;20532;-84
2021/01/02 09:22:54;;;;;;;16.27;12.97;;;4.80;1.00;;;;;;4915321;28;20211;-85
2021/01/02 09:25:18;;;;;;;14.63;11.40;;;5.10;1.00;;;;;;4916368;28;20188;-80
2021/01/02 09:27:43;;;;;;;16.60;12.80;;;5.20;1.00;;;;;;4897360;28;20719;-84
2021/01/02 09:30:06;;;;;;;14.83;11.50;;;5.30;1.00;;;;;;4897775;28;20632;-81
2021/01/02 09:32:28;;;;;;;14.20;11.57;;;5.30;1.00;;;;;;4896189;28;20731;-81
2021/01/02 09:34:52;;;;;;;16.63;12.60;;;5.50;1.00;;;;;;4903085;28;20234;-80
2021/01/02 09:37:14;;;;;;;16.67;12.13;;;5.60;1.00;;;;;;4916110;28;20187;-82
2021/01/02 09:39:37;;;;;;;13.77;10.50;;;6.00;1.00;;;;;;4911600;28;20185;-82
2021/01/02 09:41:59;;;;;;;13.93;10.27;;;6.30;1.00;;;;;;4912702;28;20293;-83
2021/01/02 09:44:21;;;;;;;11.27;9.57;;;6.40;1.00;;;;;;4915949;28;20680;-77
2021/01/02 09:46:45;;;;;;;18.30;13.67;;;6.50;1.00;;;;;;4916359;28;20637;-80
2021/01/02 09:49:07;;;;;;;17.33;13.10;;;6.50;1.00;;;;;;4915714;28;20237;-80
2021/01/02 09:51:30;;;;;;;15.30;11.90;;;6.40;1.00;;;;;;4914815;28;20188;-74
2021/01/02 09:53:52;;;;;;;16.97;14.10;;;6.30;1.00;;;;;;4914290;28;20232;-80
2021/01/02 09:56:15;;;;;;;13.13;10.57;;;6.10;1.00;;;;;;4931813;28;20252;-79
2021/01/02 09:58:38;;;;;;;10.77;9.37;;;5.90;1.00;;;;;;4915490;28;20241;-81
2021/01/02 10:01:00;;;;;;;12.60;9.97;;;5.80;1.00;;;;;;4905091;28;20332;-79
2021/01/02 10:03:22;;;;;;;13.07;10.60;;;5.80;1.00;;;;;;4912668;28;20228;-79
2021/01/02 10:05:45;;;;;;;14.47;10.73;;;5.80;1.00;;;;;;4913928;28;20685;-76
2021/01/02 10:08:07;;;;;;;13.87;11.50;;;5.80;1.00;;;;;;4898762;28;20184;-80
2021/01/02 10:10:29;;;;;;;16.53;13.07;;;5.80;1.00;;;;;;4895824;28;20201;-77
2021/01/02 10:12:52;;;;;;;16.43;12.83;;;5.90;1.00;;;;;;4894346;28;20820;-84
2021/01/02 10:15:16;;;;;;;15.73;12.30;;;5.80;1.00;;;;;;4895487;28;20185;-81
2021/01/02 10:17:38;;;;;;;14.30;11.77;;;5.80;1.00;;;;;;4894822;28;20705;-82
2021/01/02 10:20:00;;;;;;;15.27;12.30;;;5.80;1.00;;;;;;4897278;28;20192;-74
2021/01/02 10:22:22;;;;;;;22.30;19.57;;;5.70;1.00;;;;;;4894360;28;20229;-77
2021/01/02 10:24:47;;;;;;;21.27;16.57;;;5.70;1.00;;;;;;4929808;28;20593;-78
2021/01/02 10:27:09;;;;;;;30.40;23.33;;;5.50;1.00;;;;;;4913725;28;20199;-74
2021/01/02 10:29:33;;;;;;;25.43;17.57;;;5.60;1.00;;;;;;4898373;28;20554;-77
2021/01/02 10:31:59;;;;;;;21.37;15.90;;;5.50;1.00;;;;;;4895946;28;20180;-81
2021/01/02 10:34:21;;;;;;;23.67;17.50;;;5.50;1.00;;;;;;4897698;28;20180;-73
2021/01/02 10:36:45;;;;;;;22.00;16.87;;;5.60;1.00;;;;;;4895928;28;20180;-72
2021/01/02 10:39:07;;;;;;;26.60;19.90;;;5.60;1.00;;;;;;4907207;28;20244;-76
2021/01/02 10:41:29;;;;;;;22.70;17.70;;;5.60;1.00;;;;;;4931035;28;20207;-75
2021/01/02 10:43:52;;;;;;;25.70;20.77;;;5.60;1.00;;;;;;4913408;28;20665;-85
2021/01/02 10:46:15;;;;;;;26.40;21.97;;;5.70;1.00;;;;;;4931507;28;20191;-76
2021/01/02 10:48:38;;;;;;;20.70;16.07;;;5.70;1.00;;;;;;4907887;28;20211;-81
2021/01/02 10:51:00;;;;;;;17.03;13.77;;;5.70;1.00;;;;;;4909345;28;20188;-73
2021/01/02 10:53:22;;;;;;;15.77;12.80;;;5.80;1.00;;;;;;4909886;28;20286;-73
2021/01/02 10:55:44;;;;;;;18.33;13.67;;;5.80;1.00;;;;;;4902520;28;20214;-83
2021/01/02 10:58:06;;;;;;;19.63;14.73;;;5.90;1.00;;;;;;4912959;28;20609;-77
2021/01/02 11:00:28;;;;;;;14.30;11.80;;;6.10;1.00;;;;;;4904481;28;20654;-76
2021/01/02 11:02:52;;;;;;;17.00;13.17;;;6.40;1.00;;;;;;4912833;28;20227;-72
2021/01/02 11:05:14;;;;;;;15.03;13.07;;;6.40;1.00;;;;;;4912120;28;20293;-80
2021/01/02 11:07:36;;;;;;;24.07;18.60;;;6.60;1.00;;;;;;4915426;28;20209;-83
2021/01/02 11:09:58;;;;;;;19.67;16.20;;;6.80;1.00;;;;;;4903192;28;20188;-81
2021/01/02 11:12:21;;;;;;;14.03;11.73;;;6.80;1.00;;;;;;4915510;28;20211;-84
2021/01/02 11:14:44;;;;;;;13.87;11.47;;;6.90;1.00;;;;;;4913472;28;20685;-81
2021/01/02 11:17:07;;;;;;;15.93;13.40;;;7.00;1.00;;;;;;4915061;28;20265;-81
2021/01/02 11:19:30;;;;;;;19.53;16.53;;;7.10;1.00;;;;;;4904288;28;20200;-85
2021/01/02 11:21:55;;;;;;;20.70;16.43;;;7.00;1.00;;;;;;4894389;28;20192;-73
2021/01/02 11:24:21;;;;;;;17.30;13.77;;;7.10;1.00;;;;;;4907973;28;20207;-72
2021/01/02 11:26:45;;;;;;;13.00;11.67;;;6.90;1.00;;;;;;4895572;28;20193;-73
2021/01/02 11:29:07;;;;;;;13.70;12.03;;;7.00;1.00;;;;;;4898482;28;20682;-73
2021/01/02 11:31:30;;;;;;;13.83;12.37;;;7.10;1.00;;;;;;4895222;28;20189;-73
2021/01/02 11:33:53;;;;;;;13.13;11.77;;;7.10;1.00;;;;;;4902802;28;20187;-72
2021/01/02 11:36:16;;;;;;;16.90;14.93;;;7.10;1.00;;;;;;4896303;28;20207;-75
2021/01/02 11:38:38;;;;;;;15.77;13.77;;;7.20;1.00;;;;;;4904207;28;20188;-73
2021/01/02 11:41:00;;;;;;;18.33;14.60;;;7.20;1.00;;;;;;4907027;28;20270;-74
2021/01/02 11:43:22;;;;;;;14.67;11.40;;;7.20;1.00;;;;;;4890979;28;20216;-74
2021/01/02 11:45:46;;;;;;;12.00;10.57;;;7.40;1.00;;;;;;4902277;28;20250;-74
2021/01/02 11:48:11;;;;;;;14.37;11.90;;;7.50;1.00;;;;;;4900305;28;20192;-74
2021/01/02 11:50:33;;;;;;;13.57;10.93;;;7.60;1.00;;;;;;4883962;28;20685;-72
2021/01/02 11:52:56;;;;;;;12.70;11.37;;;7.80;1.00;;;;;;4901812;28;20273;-73
2021/01/02 11:55:18;;;;;;;16.53;14.23;;;7.80;1.00;;;;;;4902287;28;20184;-72
2021/01/02 11:57:40;;;;;;;14.60;12.50;;;7.80;1.00;;;;;;4867830;28;20263;-74
2021/01/02 12:00:05;;;;;;;31.37;26.27;;;7.80;1.00;;;;;;4913380;28;20180;-74
2021/01/02 12:02:28;;;;;;;33.60;29.43;;;7.80;1.00;;;;;;4911045;28;20262;-78
2021/01/02 12:04:50;;;;;;;40.87;36.47;;;7.70;1.00;;;;;;4916553;28;20188;-86
2021/01/02 12:07:12;;;;;;;19.07;17.03;;;7.60;1.00;;;;;;4917814;28;20184;-84
2021/01/02 12:09:36;;;;;;;17.67;15.80;;;7.50;1.00;;;;;;4915265;28;20188;-84
2021/01/02 12:11:59;;;;;;;11.97;9.97;;;7.40;1.00;;;;;;4899452;28;20184;-84
2021/01/02 12:14:25;;;;;;;11.70;9.70;;;7.20;1.00;;;;;;4909871;28;20229;-81
2021/01/02 12:16:50;;;;;;;11.17;10.00;;;7.30;1.00;;;;;;4904365;28;20188;-74
2021/01/02 12:19:14;;;;;;;11.50;10.03;;;7.10;1.00;;;;;;4900845;28;20655;-84
2021/01/02 12:21:36;;;;;;;15.53;13.73;;;7.10;1.00;;;;;;4913710;28;20316;-84
2021/01/02 12:23:58;;;;;;;15.77;13.20;;;7.10;1.00;;;;;;4904885;28;20261;-81
2021/01/02 12:26:22;;;;;;;13.07;11.60;;;7.00;1.00;;;;;;4908986;28;20189;-84
2021/01/02 12:28:46;;;;;;;12.17;10.93;;;7.00;1.00;;;;;;4904634;28;20193;-83
2021/01/02 12:31:08;;;;;;;15.93;14.20;;;6.90;1.00;;;;;;4901715;28;20208;-77